createdAt,value
2017-12-20T00:00:18.729Z,34.53
2017-12-20T00:02:46.260Z,34.63
2017-12-20T00:05:16.372Z,36.35
2017-12-20T00:07:44.001Z,37.20
2017-12-20T00:10:11.615Z,37.80
2017-12-20T00:12:39.146Z,38.43
2017-12-20T00:15:06.703Z,36.80
2017-12-20T00:17:34.239Z,38.00
2017-12-20T00:20:02.592Z,37.10
2017-12-20T00:22:30.165Z,36.33
2017-12-20T00:24:57.716Z,38.70
2017-12-20T00:27:25.254Z,39.57
2017-12-20T00:29:52.856Z,42.30
2017-12-20T00:32:21.173Z,40.12
2017-12-20T00:34:48.707Z,43.10
2017-12-20T00:37:16.465Z,41.10
2017-12-20T00:39:44.772Z,44.67
2017-12-20T00:42:12.303Z,42.63
2017-12-20T00:44:39.868Z,44.03
2017-12-20T00:47:07.395Z,42.07
2017-12-20T00:49:34.933Z,42.83
2017-12-20T00:52:02.515Z,44.53
2017-12-20T00:54:30.051Z,44.57
2017-12-20T00:56:57.587Z,46.63
2017-12-20T00:59:25.149Z,48.00
2017-12-20T01:01:52.919Z,48.03
2017-12-20T01:04:20.463Z,49.53
2017-12-20T01:06:48.028Z,48.07
2017-12-20T01:09:16.445Z,50.97
2017-12-20T01:11:44.023Z,51.10
2017-12-20T01:14:11.610Z,49.40
2017-12-20T01:16:39.144Z,50.60
2017-12-20T01:19:07.456Z,52.60
2017-12-20T01:21:35.023Z,54.27
2017-12-20T01:24:02.576Z,52.25
2017-12-20T01:26:30.132Z,50.90
2017-12-20T01:28:57.700Z,53.13
2017-12-20T01:31:25.247Z,52.20
2017-12-20T01:33:52.789Z,52.50
2017-12-20T01:36:20.406Z,52.83
2017-12-20T01:38:47.951Z,51.40
2017-12-20T01:41:16.405Z,51.20
2017-12-20T01:43:43.964Z,54.63
2017-12-20T01:46:11.496Z,51.65
2017-12-20T01:48:39.968Z,50.97
2017-12-20T01:51:08.336Z,50.80
2017-12-20T01:53:35.876Z,50.23
2017-12-20T01:56:03.413Z,52.80
2017-12-20T01:58:31.759Z,51.80
2017-12-20T02:00:59.307Z,49.93
2017-12-20T02:03:28.099Z,52.37
2017-12-20T02:05:55.671Z,50.70
2017-12-20T02:08:23.217Z,51.03
2017-12-20T02:10:50.750Z,48.80
2017-12-20T02:13:18.312Z,50.50
2017-12-20T02:15:45.851Z,49.60
2017-12-20T02:18:23.690Z,53.47
2017-12-20T02:25:37.975Z,50.30
2017-12-20T02:28:05.516Z,51.50
2017-12-20T02:30:33.063Z,51.17
2017-12-20T02:33:00.625Z,53.17
2017-12-20T02:35:28.939Z,52.10
2017-12-20T02:37:56.508Z,47.93
2017-12-20T02:40:24.092Z,51.93
2017-12-20T02:42:51.623Z,50.60
2017-12-20T02:45:19.157Z,47.83
2017-12-20T02:47:46.727Z,48.77
2017-12-20T02:50:15.579Z,49.80
2017-12-20T02:52:43.119Z,50.53
2017-12-20T02:55:10.679Z,51.75
2017-12-20T02:57:38.214Z,50.07
2017-12-20T03:00:05.759Z,48.73
2017-12-20T03:02:33.353Z,48.55
2017-12-20T03:05:01.120Z,50.13
2017-12-20T03:07:28.652Z,50.30
2017-12-20T03:09:56.208Z,46.77
2017-12-20T03:12:23.743Z,47.63
2017-12-20T03:14:51.276Z,50.70
2017-12-20T03:17:19.610Z,49.03
2017-12-20T03:19:47.148Z,49.60
2017-12-20T03:22:17.274Z,48.97
2017-12-20T03:24:44.854Z,45.60
2017-12-20T03:27:12.389Z,47.97
2017-12-20T03:29:39.920Z,47.10
2017-12-20T03:32:08.262Z,45.97
2017-12-20T03:34:35.791Z,46.20
2017-12-20T03:37:03.323Z,44.33
2017-12-20T03:39:30.896Z,43.17
2017-12-20T03:41:58.427Z,47.20
2017-12-20T03:44:26.734Z,43.77
2017-12-20T03:46:54.337Z,46.03
2017-12-20T03:49:21.903Z,45.77
2017-12-20T03:51:49.448Z,46.08
2017-12-20T03:54:17.788Z,44.70
2017-12-20T03:56:45.327Z,41.75
2017-12-20T03:59:14.556Z,47.00
2017-12-20T04:01:42.152Z,42.67
2017-12-20T04:04:09.694Z,43.27
2017-12-20T04:06:37.230Z,40.23
2017-12-20T04:09:04.851Z,42.87
2017-12-20T04:11:32.384Z,43.20
2017-12-20T04:13:59.926Z,43.20
2017-12-20T04:16:27.485Z,40.85
2017-12-20T04:18:55.015Z,41.27
2017-12-20T04:21:22.552Z,40.93
2017-12-20T04:23:50.144Z,41.40
2017-12-20T04:26:17.686Z,38.83
2017-12-20T04:28:45.219Z,37.13
2017-12-20T04:31:14.514Z,38.70
2017-12-20T04:33:42.821Z,38.90
2017-12-20T04:36:10.355Z,41.07
2017-12-20T04:38:37.924Z,39.47
2017-12-20T04:41:05.464Z,37.60
2017-12-20T04:43:33.844Z,36.70
2017-12-20T04:46:02.221Z,37.47
2017-12-20T04:48:29.839Z,37.90
2017-12-20T04:50:57.367Z,36.33
2017-12-20T04:53:25.013Z,36.77
2017-12-20T04:55:53.318Z,38.17
2017-12-20T04:58:20.965Z,34.58
2017-12-20T05:00:48.534Z,37.33
2017-12-20T05:03:16.451Z,38.20
2017-12-20T05:05:44.000Z,36.07
2017-12-20T05:08:11.804Z,37.53
2017-12-20T05:10:40.109Z,36.03
2017-12-20T05:13:07.667Z,36.23
2017-12-20T05:15:35.278Z,37.73
2017-12-20T05:18:02.829Z,36.53
2017-12-20T05:20:30.356Z,38.43
2017-12-20T05:22:57.947Z,38.67
2017-12-20T05:25:25.481Z,35.50
2017-12-20T05:27:53.021Z,36.93
2017-12-20T05:30:20.784Z,34.90
2017-12-20T05:32:48.327Z,38.27
2017-12-20T05:35:16.768Z,38.17
2017-12-20T05:37:45.420Z,39.43
2017-12-20T05:40:14.715Z,38.25
2017-12-20T05:42:42.279Z,38.90
2017-12-20T05:45:09.861Z,39.80
2017-12-20T05:47:37.424Z,37.30
2017-12-20T05:50:04.964Z,35.03
2017-12-20T05:52:32.519Z,37.15
2017-12-20T05:55:00.828Z,36.53
2017-12-20T05:57:28.392Z,36.53
2017-12-20T05:59:56.772Z,36.20
2017-12-20T06:02:24.371Z,38.10
2017-12-20T06:04:51.964Z,38.60
2017-12-20T06:07:19.545Z,34.65
2017-12-20T06:09:48.263Z,35.90
2017-12-20T06:12:17.263Z,34.33
2017-12-20T06:14:44.887Z,36.83
2017-12-20T06:17:12.439Z,37.92
2017-12-20T06:19:39.987Z,38.07
2017-12-20T06:22:07.576Z,35.63
2017-12-20T06:24:35.897Z,34.27
2017-12-20T06:27:03.447Z,34.30
2017-12-20T06:29:31.206Z,37.23
2017-12-20T06:31:58.737Z,34.57
2017-12-20T06:34:27.075Z,35.67
2017-12-20T06:36:54.643Z,33.83
2017-12-20T06:39:22.213Z,35.43
2017-12-20T06:41:49.779Z,33.80
2017-12-20T06:44:18.142Z,33.60
2017-12-20T06:46:45.693Z,32.50
2017-12-20T06:49:15.371Z,32.03
2017-12-20T06:51:42.961Z,32.20
2017-12-20T06:54:10.508Z,30.50
2017-12-20T06:56:39.359Z,30.57
2017-12-20T06:59:06.929Z,32.50
2017-12-20T07:01:34.476Z,30.48
2017-12-20T07:04:02.032Z,29.57
2017-12-20T07:06:29.650Z,26.98
2017-12-20T07:08:57.196Z,29.30
2017-12-20T07:11:25.295Z,28.97
2017-12-20T07:13:52.984Z,28.63
2017-12-20T07:16:20.527Z,26.24
2017-12-20T07:18:48.903Z,27.77
2017-12-20T07:21:16.514Z,27.17
2017-12-20T07:23:44.246Z,27.73
2017-12-20T07:26:11.828Z,25.97
2017-12-20T07:28:39.405Z,26.10
2017-12-20T07:31:06.940Z,25.07
2017-12-20T07:33:34.483Z,25.58
2017-12-20T07:36:02.101Z,25.50
2017-12-20T07:38:29.632Z,27.03
2017-12-20T07:40:57.192Z,27.27
2017-12-20T07:43:24.816Z,26.40
2017-12-20T07:45:52.375Z,25.30
2017-12-20T07:48:19.915Z,25.98
2017-12-20T07:50:47.550Z,27.50
2017-12-20T07:53:16.470Z,25.67
2017-12-20T07:55:44.023Z,25.90
2017-12-20T07:58:11.613Z,27.70
2017-12-20T08:00:39.203Z,26.77
2017-12-20T08:03:06.749Z,27.00
2017-12-20T08:05:34.328Z,25.13
2017-12-20T08:08:01.880Z,25.40
2017-12-20T08:10:29.497Z,25.47
2017-12-20T08:12:57.099Z,25.30
2017-12-20T08:15:24.637Z,25.43
2017-12-20T08:17:52.264Z,24.63
2017-12-20T08:20:20.653Z,25.77
2017-12-20T08:22:48.240Z,25.13
2017-12-20T08:25:16.463Z,25.23
2017-12-20T08:27:44.811Z,26.23
2017-12-20T08:30:12.391Z,26.60
2017-12-20T08:32:39.947Z,23.93
2017-12-20T08:35:07.565Z,26.25
2017-12-20T08:37:35.109Z,24.50
2017-12-20T08:40:02.643Z,25.50
2017-12-20T08:42:30.983Z,26.30
2017-12-20T08:44:58.522Z,23.70
2017-12-20T08:47:26.073Z,22.77
2017-12-20T08:49:55.076Z,23.40
2017-12-20T08:52:22.762Z,25.67
2017-12-20T08:54:50.295Z,24.23
2017-12-20T08:57:17.879Z,26.10
2017-12-20T08:59:45.506Z,24.50
2017-12-20T09:02:25.094Z,24.75
2017-12-20T09:08:41.194Z,24.03
2017-12-20T09:11:08.813Z,23.97
2017-12-20T09:13:36.676Z,23.83
2017-12-20T09:16:04.278Z,23.67
2017-12-20T09:18:32.606Z,24.73
2017-12-20T09:21:00.513Z,23.63
2017-12-20T09:23:28.080Z,24.90
2017-12-20T09:25:55.611Z,22.40
2017-12-20T09:28:23.253Z,23.80
2017-12-20T09:30:50.852Z,24.47
2017-12-20T09:33:18.407Z,26.20
2017-12-20T09:35:46.224Z,23.60
2017-12-20T09:38:16.320Z,23.87
2017-12-20T09:40:44.687Z,20.83
2017-12-20T09:43:12.238Z,22.40
2017-12-20T09:45:39.799Z,21.33
2017-12-20T09:48:07.337Z,19.57
2017-12-20T09:50:34.992Z,22.20
2017-12-20T09:53:02.660Z,20.62
2017-12-20T09:55:30.216Z,21.50
2017-12-20T09:57:57.759Z,22.93
2017-12-20T10:00:25.348Z,21.48
2017-12-20T10:02:52.884Z,23.27
2017-12-20T10:05:20.430Z,22.32
2017-12-20T10:07:47.992Z,22.77
2017-12-20T10:10:17.324Z,25.60
2017-12-20T10:12:44.866Z,23.57
2017-12-20T10:15:13.020Z,24.35
2017-12-20T10:17:40.555Z,21.30
2017-12-20T10:20:08.855Z,25.17
2017-12-20T10:22:36.471Z,23.17
2017-12-20T10:25:04.020Z,24.20
2017-12-20T10:27:31.571Z,22.67
2017-12-20T10:29:59.337Z,25.20
2017-12-20T10:32:26.905Z,23.27
2017-12-20T10:34:54.484Z,24.85
2017-12-20T10:37:22.843Z,25.63
2017-12-20T10:39:50.373Z,24.43
2017-12-20T10:42:17.920Z,25.73
2017-12-20T10:44:45.511Z,24.55
2017-12-20T10:47:15.380Z,24.95
2017-12-20T10:49:42.927Z,21.33
2017-12-20T10:52:10.499Z,21.83
2017-12-20T10:54:38.035Z,22.40
2017-12-20T10:57:06.349Z,21.40
2017-12-20T10:59:33.956Z,20.47
2017-12-20T11:02:01.487Z,21.90
2017-12-20T11:04:29.026Z,21.50
2017-12-20T11:06:56.628Z,19.30
2017-12-20T11:09:24.219Z,20.10
2017-12-20T11:11:52.576Z,17.27
2017-12-20T11:14:20.145Z,17.35
2017-12-20T11:16:48.739Z,17.07
2017-12-20T11:19:16.508Z,15.48
2017-12-20T11:21:44.080Z,15.30
2017-12-20T11:24:11.661Z,15.40
2017-12-20T11:26:39.196Z,14.90
2017-12-20T11:29:06.835Z,16.50
2017-12-20T11:31:34.380Z,16.87
2017-12-20T11:34:01.925Z,15.73
2017-12-20T11:36:29.535Z,16.33
2017-12-20T11:38:57.103Z,15.90
2017-12-20T11:41:25.427Z,14.47
2017-12-20T11:43:53.004Z,16.03
2017-12-20T11:46:20.564Z,15.40
2017-12-20T11:48:48.864Z,16.13
2017-12-20T11:51:16.560Z,16.60
2017-12-20T11:53:44.104Z,16.40
2017-12-20T11:56:11.683Z,16.00
2017-12-20T11:58:39.249Z,17.43
2017-12-20T12:01:06.878Z,16.77
2017-12-20T12:03:34.424Z,17.23
2017-12-20T12:06:04.098Z,16.20
2017-12-20T12:08:32.462Z,16.30
2017-12-20T12:10:59.995Z,17.20
2017-12-20T12:13:27.597Z,16.20
2017-12-20T12:15:55.916Z,17.00
2017-12-20T12:18:23.983Z,15.65
2017-12-20T12:20:51.597Z,15.00
2017-12-20T12:23:19.915Z,17.40
2017-12-20T12:25:47.483Z,16.02
2017-12-20T12:28:15.644Z,15.88
2017-12-20T12:30:43.195Z,17.27
2017-12-20T12:33:10.761Z,16.77
2017-12-20T12:35:38.361Z,15.50
2017-12-20T12:38:05.920Z,16.40
2017-12-20T12:40:33.447Z,17.15
2017-12-20T12:43:01.025Z,16.67
2017-12-20T12:45:28.563Z,15.87
2017-12-20T12:47:56.098Z,16.00
2017-12-20T12:50:24.060Z,15.50
2017-12-20T12:52:52.354Z,14.90
2017-12-20T12:55:19.896Z,16.30
2017-12-20T12:57:47.504Z,16.80
2017-12-20T13:00:16.609Z,15.98
2017-12-20T13:02:44.249Z,15.30
2017-12-20T13:05:11.866Z,17.47
2017-12-20T13:07:40.215Z,15.67
2017-12-20T13:10:07.765Z,15.57
2017-12-20T13:12:35.323Z,15.63
2017-12-20T13:15:02.890Z,16.23
2017-12-20T13:17:30.462Z,17.25
2017-12-20T13:19:58.196Z,15.77
2017-12-20T13:22:25.770Z,14.70
2017-12-20T13:24:53.314Z,14.90
2017-12-20T13:27:20.893Z,14.60
2017-12-20T13:29:48.441Z,13.57
2017-12-20T13:32:17.211Z,15.93
2017-12-20T13:34:44.880Z,15.70
2017-12-20T13:37:12.429Z,13.97
2017-12-20T13:39:39.971Z,12.90
2017-12-20T13:42:07.561Z,13.00
2017-12-20T13:44:35.202Z,12.83
2017-12-20T13:47:03.622Z,12.40
2017-12-20T13:49:31.190Z,12.17
2017-12-20T13:51:58.728Z,12.20
2017-12-20T13:54:26.319Z,11.40
2017-12-20T13:56:54.638Z,12.37
2017-12-20T13:59:22.177Z,12.83
2017-12-20T14:01:49.759Z,12.77
2017-12-20T14:04:17.391Z,11.73
2017-12-20T14:06:45.013Z,12.10
2017-12-20T14:09:12.648Z,12.70
2017-12-20T14:11:40.228Z,16.10
2017-12-20T14:14:07.804Z,13.60
2017-12-20T14:16:35.349Z,14.03
2017-12-20T14:19:02.988Z,12.50
2017-12-20T14:21:30.948Z,13.66
2017-12-20T14:23:58.531Z,12.93
2017-12-20T14:26:26.127Z,13.00
2017-12-20T14:28:53.686Z,13.70
2017-12-20T14:31:21.294Z,13.20
2017-12-20T14:33:48.915Z,14.13
2017-12-20T14:36:16.456Z,13.43
2017-12-20T14:38:44.849Z,13.67
2017-12-20T14:41:12.433Z,14.47
2017-12-20T14:43:39.971Z,14.60
2017-12-20T14:46:07.509Z,14.27
2017-12-20T14:48:35.865Z,13.27
2017-12-20T14:51:03.406Z,13.90
2017-12-20T14:53:31.760Z,13.33
2017-12-20T14:55:59.343Z,13.70
2017-12-20T14:58:26.927Z,14.63
2017-12-20T15:00:54.468Z,13.67
2017-12-20T15:03:22.084Z,13.93
2017-12-20T15:05:50.420Z,15.40
2017-12-20T15:08:18.214Z,17.73
2017-12-20T15:10:46.637Z,17.37
2017-12-20T15:13:16.407Z,16.80
2017-12-20T15:15:44.743Z,18.00
2017-12-20T15:18:12.318Z,17.50
2017-12-20T15:20:39.928Z,17.53
2017-12-20T15:23:08.016Z,15.13
2017-12-20T15:25:35.608Z,15.90
2017-12-20T15:28:03.156Z,16.10
2017-12-20T15:30:30.722Z,15.00
2017-12-20T15:32:58.332Z,14.87
2017-12-20T15:35:25.876Z,15.20
2017-12-20T15:37:53.429Z,14.77
2017-12-20T15:40:21.797Z,16.40
2017-12-20T15:42:49.349Z,17.50
2017-12-20T15:45:16.901Z,16.70
2017-12-20T15:47:44.472Z,15.60
2017-12-20T15:50:12.013Z,18.07
2017-12-20T15:52:39.549Z,17.00
2017-12-20T15:55:07.160Z,21.27
2017-12-20T15:57:34.722Z,19.23
2017-12-20T16:00:03.088Z,19.67
2017-12-20T16:02:30.725Z,20.10
2017-12-20T16:04:58.262Z,20.47
2017-12-20T16:07:25.821Z,19.97
2017-12-20T16:09:53.397Z,40.73
2017-12-20T16:12:20.957Z,28.08
2017-12-20T16:14:48.592Z,30.65
2017-12-20T16:17:16.536Z,31.00
2017-12-20T16:19:44.893Z,27.30
2017-12-20T16:22:14.248Z,26.55
2017-12-20T16:24:42.206Z,24.83
2017-12-20T16:27:09.839Z,26.13
2017-12-20T16:29:37.373Z,23.40
2017-12-20T16:32:04.941Z,23.40
2017-12-20T16:34:32.480Z,24.17
2017-12-20T16:37:00.901Z,23.03
2017-12-20T16:39:28.509Z,24.95
2017-12-20T16:41:56.052Z,30.83
2017-12-20T16:44:23.600Z,31.37
2017-12-20T16:46:51.357Z,28.20
2017-12-20T16:49:18.969Z,27.67
2017-12-20T16:51:47.381Z,25.00
2017-12-20T16:54:15.517Z,26.05
2017-12-20T16:56:43.140Z,27.27
2017-12-20T16:59:10.672Z,26.70
2017-12-20T17:01:38.280Z,27.13
2017-12-20T17:04:05.870Z,27.43
2017-12-20T17:06:33.437Z,30.10
2017-12-20T17:09:01.861Z,27.83
2017-12-20T17:11:29.533Z,26.10
2017-12-20T17:13:57.120Z,23.30
2017-12-20T17:16:25.463Z,24.83
2017-12-20T17:18:53.014Z,24.33
2017-12-20T17:21:20.553Z,24.07
2017-12-20T17:23:48.236Z,25.30
2017-12-20T17:26:16.752Z,23.93
2017-12-20T17:28:44.311Z,26.30
2017-12-20T17:31:11.980Z,29.93
2017-12-20T17:33:39.591Z,28.58
2017-12-20T17:36:07.151Z,27.23
2017-12-20T17:38:34.794Z,26.57
2017-12-20T17:41:02.377Z,25.53
2017-12-20T17:43:29.935Z,24.70
2017-12-20T17:45:57.536Z,25.27
2017-12-20T17:48:25.085Z,24.60
2017-12-20T17:50:52.624Z,24.77
2017-12-20T17:53:20.994Z,26.23
2017-12-20T17:55:48.616Z,25.25
2017-12-20T17:58:16.450Z,22.90
2017-12-20T18:00:44.074Z,21.63
2017-12-20T18:03:11.693Z,21.60
2017-12-20T18:05:39.288Z,23.43
2017-12-20T18:08:06.931Z,21.10
2017-12-20T18:10:34.519Z,19.25
2017-12-20T18:13:02.052Z,21.80
2017-12-20T18:15:29.703Z,19.75
2017-12-20T18:17:57.319Z,17.03
2017-12-20T18:20:24.929Z,17.67
2017-12-20T18:22:52.507Z,17.17
2017-12-20T18:25:20.051Z,18.50
2017-12-20T18:27:47.950Z,15.80
2017-12-20T18:30:16.709Z,17.75
2017-12-20T18:32:44.244Z,16.90
2017-12-20T18:35:11.915Z,15.97
2017-12-20T18:37:39.588Z,17.83
2017-12-20T18:40:07.181Z,17.40
2017-12-20T18:42:34.777Z,16.87
2017-12-20T18:45:03.466Z,18.47
2017-12-20T18:47:31.713Z,19.87
2017-12-20T18:49:59.303Z,19.63
2017-12-20T18:52:27.866Z,19.30
2017-12-20T18:54:55.550Z,18.40
2017-12-20T18:57:23.899Z,18.10
2017-12-20T18:59:51.505Z,17.60
2017-12-20T19:02:19.153Z,18.63
2017-12-20T19:04:46.755Z,18.23
2017-12-20T19:07:15.771Z,18.95
2017-12-20T19:09:43.313Z,17.80
2017-12-20T19:12:11.662Z,23.43
2017-12-20T19:14:39.421Z,26.47
2017-12-20T19:17:07.136Z,26.27
2017-12-20T19:19:34.715Z,33.50
2017-12-20T19:22:02.505Z,18.30
2017-12-20T19:24:30.128Z,18.90
2017-12-20T19:26:57.865Z,19.30
2017-12-20T19:29:25.906Z,21.00
2017-12-20T19:31:54.310Z,20.77
2017-12-20T19:34:21.980Z,19.93
2017-12-20T19:36:50.005Z,21.35
2017-12-20T19:39:17.625Z,23.08
2017-12-20T19:41:45.231Z,22.70
2017-12-20T19:44:13.795Z,23.67
2017-12-20T19:46:42.172Z,23.67
2017-12-20T19:49:09.761Z,24.70
2017-12-20T19:51:37.395Z,24.65
2017-12-20T19:54:05.743Z,25.73
2017-12-20T19:56:33.336Z,26.80
2017-12-20T19:59:01.746Z,35.03
2017-12-20T20:01:29.435Z,30.17
2017-12-20T20:03:57.018Z,24.47
2017-12-20T20:06:24.588Z,24.77
2017-12-20T20:08:52.935Z,21.30
2017-12-20T20:11:20.577Z,20.50
2017-12-20T20:13:48.226Z,20.23
2017-12-20T20:16:16.487Z,22.63
2017-12-20T20:18:44.081Z,21.10
2017-12-20T20:21:12.010Z,20.63
2017-12-20T20:23:39.665Z,19.30
2017-12-20T20:26:07.330Z,18.30
2017-12-20T20:28:35.064Z,17.67
2017-12-20T20:31:03.205Z,18.20
2017-12-20T20:33:30.791Z,18.65
2017-12-20T20:35:58.437Z,19.70
2017-12-20T20:38:26.023Z,18.25
2017-12-20T20:40:53.622Z,19.52
2017-12-20T20:43:21.404Z,19.80
2017-12-20T20:45:49.038Z,18.37
2017-12-20T20:48:16.662Z,19.83
2017-12-20T20:50:45.129Z,20.60
2017-12-20T20:53:12.731Z,22.15
2017-12-20T20:55:40.324Z,24.47
2017-12-20T20:58:07.955Z,20.00
2017-12-20T21:00:35.563Z,22.23
2017-12-20T21:03:03.201Z,23.53
2017-12-20T21:05:30.984Z,20.47
2017-12-20T21:07:58.651Z,20.63
2017-12-20T21:10:26.187Z,20.23
2017-12-20T21:12:53.782Z,20.60
2017-12-20T21:15:21.407Z,18.23
2017-12-20T21:17:49.063Z,18.67
2017-12-20T21:20:16.695Z,17.67
2017-12-20T21:22:44.396Z,18.63
2017-12-20T21:25:11.974Z,19.33
2017-12-20T21:27:39.892Z,20.65
2017-12-20T21:30:07.488Z,22.70
2017-12-20T21:32:37.004Z,18.87
2017-12-20T21:35:04.649Z,17.20
2017-12-20T21:37:32.247Z,15.63
2017-12-20T21:40:00.613Z,16.33
2017-12-20T21:42:28.237Z,17.77
2017-12-20T21:44:55.814Z,15.60
2017-12-20T21:47:24.200Z,16.43
2017-12-20T21:49:51.838Z,16.67
2017-12-20T21:52:19.466Z,18.95
2017-12-20T21:54:47.029Z,20.40
2017-12-20T21:57:20.446Z,21.08
2017-12-20T22:04:25.244Z,21.23
2017-12-20T22:06:52.831Z,24.30
2017-12-20T22:09:20.483Z,23.55
2017-12-20T22:11:48.581Z,24.73
2017-12-20T22:14:16.554Z,23.98
2017-12-20T22:16:44.183Z,24.57
2017-12-20T22:19:12.520Z,23.33
2017-12-20T22:21:40.338Z,27.13
2017-12-20T22:24:08.114Z,25.07
2017-12-20T22:26:35.768Z,26.47
2017-12-20T22:29:03.380Z,26.03
2017-12-20T22:31:31.039Z,26.17
2017-12-20T22:33:59.611Z,25.50
2017-12-20T22:36:27.209Z,25.00
2017-12-20T22:38:54.854Z,25.83
2017-12-20T22:41:22.479Z,26.67
2017-12-20T22:43:50.056Z,26.50
2017-12-20T22:46:17.592Z,26.10
2017-12-20T22:48:45.260Z,26.73
2017-12-20T22:51:13.825Z,26.40
2017-12-20T22:53:41.516Z,25.40
2017-12-20T22:56:09.226Z,25.93
2017-12-20T22:58:37.535Z,26.90
2017-12-20T23:01:05.150Z,27.20
2017-12-20T23:03:33.524Z,27.62
2017-12-20T23:06:01.252Z,26.57
2017-12-20T23:08:28.888Z,25.90
2017-12-20T23:10:56.573Z,27.10
2017-12-20T23:13:24.154Z,25.77
2017-12-20T23:15:51.818Z,25.80
2017-12-20T23:18:19.436Z,25.30
2017-12-20T23:20:47.035Z,25.23
2017-12-20T23:23:16.511Z,25.35
2017-12-20T23:25:44.076Z,23.60
2017-12-20T23:28:11.654Z,25.07
2017-12-20T23:30:39.197Z,24.87
2017-12-20T23:33:06.756Z,25.27
2017-12-20T23:35:34.642Z,26.70
2017-12-20T23:38:02.212Z,26.30
2017-12-20T23:40:29.837Z,25.10
2017-12-20T23:42:57.414Z,22.57
2017-12-20T23:45:24.947Z,23.67
2017-12-20T23:47:52.500Z,23.80
2017-12-20T23:50:20.036Z,23.45
2017-12-20T23:52:47.604Z,23.13
2017-12-20T23:55:16.483Z,23.87
2017-12-20T23:57:44.056Z,23.57
